sensor_id;sensor_type;location;lat;lon;timestamp;temperature;humidity
2463;DHT22;1243;54.298;10.172;2023-02-22T00:01:20;6.50;99.90
2463;DHT22;1243;54.298;10.172;2023-02-22T00:04:12;6.50;99.90
2463;DHT22;1243;54.298;10.172;2023-02-22T00:06:38;6.50;99.90
2463;DHT22;1243;54.298;10.172;2023-02-22T00:09:04;6.50;99.90
2463;DHT22;1243;54.298;10.172;2023-02-22T00:11:31;6.50;99.90
2463;DHT22;1243;54.298;10.172;2023-02-22T00:13:56;6.50;99.90
2463;DHT22;1243;54.298;10.172;2023-02-22T00:16:23;6.50;99.90
2463;DHT22;1243;54.298;10.172;2023-02-22T00:18:49;6.60;99.90
2463;DHT22;1243;54.298;10.172;2023-02-22T00:21:16;6.60;99.90
2463;DHT22;1243;54.298;10.172;2023-02-22T00:23:43;6.60;99.90
2463;DHT22;1243;54.298;10.172;2023-02-22T00:26:14;6.70;99.90
2463;DHT22;1243;54.298;10.172;2023-02-22T00:28:46;6.60;99.90
2463;DHT22;1243;54.298;10.172;2023-02-22T00:31:13;6.60;99.90
2463;DHT22;1243;54.298;10.172;2023-02-22T00:33:39;6.70;1.00
2463;DHT22;1243;54.298;10.172;2023-02-22T00:36:06;6.70;1.00
2463;DHT22;1243;54.298;10.172;2023-02-22T00:38:32;6.70;1.00
2463;DHT22;1243;54.298;10.172;2023-02-22T00:40:57;6.70;1.00
2463;DHT22;1243;54.298;10.172;2023-02-22T00:43:23;6.80;1.00
2463;DHT22;1243;54.298;10.172;2023-02-22T00:45:49;6.80;1.00
2463;DHT22;1243;54.298;10.172;2023-02-22T00:48:15;6.90;1.00
2463;DHT22;1243;54.298;10.172;2023-02-22T00:50:40;6.90;1.00
2463;DHT22;1243;54.298;10.172;2023-02-22T00:53:06;6.90;1.00
2463;DHT22;1243;54.298;10.172;2023-02-22T00:55:35;7.00;1.00
2463;DHT22;1243;54.298;10.172;2023-02-22T00:58:02;7.00;1.00
2463;DHT22;1243;54.298;10.172;2023-02-22T01:00:35;7.00;1.00
2463;DHT22;1243;54.298;10.172;2023-02-22T01:03:02;7.00;1.00
2463;DHT22;1243;54.298;10.172;2023-02-22T01:05:30;7.10;1.00
2463;DHT22;1243;54.298;10.172;2023-02-22T01:07:57;7.10;1.00
2463;DHT22;1243;54.298;10.172;2023-02-22T01:10:25;7.10;1.00
2463;DHT22;1243;54.298;10.172;2023-02-22T01:12:52;7.10;1.00
2463;DHT22;1243;54.298;10.172;2023-02-22T01:15:21;7.10;1.00
2463;DHT22;1243;54.298;10.172;2023-02-22T01:17:48;7.10;1.00
2463;DHT22;1243;54.298;10.172;2023-02-22T01:20:14;7.00;1.00
2463;DHT22;1243;54.298;10.172;2023-02-22T01:22:42;7.00;1.00
2463;DHT22;1243;54.298;10.172;2023-02-22T01:25:10;6.90;1.00
2463;DHT22;1243;54.298;10.172;2023-02-22T01:27:37;6.90;1.00
2463;DHT22;1243;54.298;10.172;2023-02-22T01:30:04;6.80;1.00
2463;DHT22;1243;54.298;10.172;2023-02-22T01:32:37;6.80;1.00
2463;DHT22;1243;54.298;10.172;2023-02-22T01:35:05;6.80;1.00
2463;DHT22;1243;54.298;10.172;2023-02-22T01:37:35;6.70;1.00
2463;DHT22;1243;54.298;10.172;2023-02-22T01:40:03;6.70;1.00
2463;DHT22;1243;54.298;10.172;2023-02-22T01:42:29;6.60;1.00
2463;DHT22;1243;54.298;10.172;2023-02-22T01:48:03;6.50;1.00
2463;DHT22;1243;54.298;10.172;2023-02-22T01:50:33;6.50;1.00
2463;DHT22;1243;54.298;10.172;2023-02-22T01:53:00;6.40;1.00
2463;DHT22;1243;54.298;10.172;2023-02-22T01:55:27;6.40;1.00
2463;DHT22;1243;54.298;10.172;2023-02-22T01:57:53;6.40;1.00
2463;DHT22;1243;54.298;10.172;2023-02-22T02:00:19;6.40;1.00
2463;DHT22;1243;54.298;10.172;2023-02-22T02:03:12;6.50;1.00
2463;DHT22;1243;54.298;10.172;2023-02-22T02:05:39;6.50;1.00
2463;DHT22;1243;54.298;10.172;2023-02-22T02:08:34;6.50;1.00
2463;DHT22;1243;54.298;10.172;2023-02-22T02:11:04;6.60;1.00
2463;DHT22;1243;54.298;10.172;2023-02-22T02:13:30;6.60;1.00
2463;DHT22;1243;54.298;10.172;2023-02-22T02:15:56;6.60;1.00
2463;DHT22;1243;54.298;10.172;2023-02-22T02:18:22;6.60;1.00
2463;DHT22;1243;54.298;10.172;2023-02-22T02:20:53;6.70;1.00
2463;DHT22;1243;54.298;10.172;2023-02-22T02:23:37;6.70;1.00
2463;DHT22;1243;54.298;10.172;2023-02-22T02:36:55;6.90;1.00
2463;DHT22;1243;54.298;10.172;2023-02-22T02:39:29;6.90;1.00
2463;DHT22;1243;54.298;10.172;2023-02-22T02:42:02;6.90;1.00
2463;DHT22;1243;54.298;10.172;2023-02-22T02:44:40;7.00;1.00
2463;DHT22;1243;54.298;10.172;2023-02-22T02:49:53;7.00;1.00
2463;DHT22;1243;54.298;10.172;2023-02-22T02:52:22;7.00;1.00
2463;DHT22;1243;54.298;10.172;2023-02-22T02:54:49;7.00;1.00
2463;DHT22;1243;54.298;10.172;2023-02-22T02:57:16;7.00;1.00
2463;DHT22;1243;54.298;10.172;2023-02-22T02:59:41;7.00;1.00
2463;DHT22;1243;54.298;10.172;2023-02-22T03:02:24;7.00;1.00
2463;DHT22;1243;54.298;10.172;2023-02-22T03:07:56;7.00;1.00
2463;DHT22;1243;54.298;10.172;2023-02-22T03:10:42;7.00;1.00
2463;DHT22;1243;54.298;10.172;2023-02-22T03:13:23;7.00;1.00
2463;DHT22;1243;54.298;10.172;2023-02-22T03:18:25;7.00;1.00
2463;DHT22;1243;54.298;10.172;2023-02-22T03:21:15;7.00;1.00
2463;DHT22;1243;54.298;10.172;2023-02-22T03:24:21;7.10;1.00
2463;DHT22;1243;54.298;10.172;2023-02-22T03:29:30;7.10;1.00
2463;DHT22;1243;54.298;10.172;2023-02-22T03:32:02;7.10;1.00
2463;DHT22;1243;54.298;10.172;2023-02-22T03:34:33;7.10;1.00
2463;DHT22;1243;54.298;10.172;2023-02-22T03:37:04;7.10;1.00
2463;DHT22;1243;54.298;10.172;2023-02-22T03:39:35;7.10;1.00
2463;DHT22;1243;54.298;10.172;2023-02-22T03:42:12;7.20;1.00
2463;DHT22;1243;54.298;10.172;2023-02-22T03:44:40;7.20;1.00
2463;DHT22;1243;54.298;10.172;2023-02-22T03:47:15;7.20;1.00
2463;DHT22;1243;54.298;10.172;2023-02-22T03:49:52;7.20;1.00
2463;DHT22;1243;54.298;10.172;2023-02-22T03:52:21;7.20;1.00
2463;DHT22;1243;54.298;10.172;2023-02-22T03:54:49;7.20;1.00
2463;DHT22;1243;54.298;10.172;2023-02-22T03:57:36;7.20;1.00
2463;DHT22;1243;54.298;10.172;2023-02-22T04:00:11;7.20;1.00
2463;DHT22;1243;54.298;10.172;2023-02-22T04:02:39;7.20;1.00
2463;DHT22;1243;54.298;10.172;2023-02-22T04:05:06;7.20;1.00
2463;DHT22;1243;54.298;10.172;2023-02-22T04:07:32;7.20;1.00
2463;DHT22;1243;54.298;10.172;2023-02-22T04:09:57;7.20;1.00
2463;DHT22;1243;54.298;10.172;2023-02-22T04:12:23;7.20;1.00
2463;DHT22;1243;54.298;10.172;2023-02-22T04:14:49;7.20;1.00
2463;DHT22;1243;54.298;10.172;2023-02-22T04:17:15;7.20;1.00
2463;DHT22;1243;54.298;10.172;2023-02-22T04:19:40;7.20;1.00
2463;DHT22;1243;54.298;10.172;2023-02-22T04:22:06;7.20;1.00
2463;DHT22;1243;54.298;10.172;2023-02-22T04:24:32;7.20;1.00
2463;DHT22;1243;54.298;10.172;2023-02-22T04:26:57;7.20;1.00
2463;DHT22;1243;54.298;10.172;2023-02-22T04:29:23;7.20;1.00
2463;DHT22;1243;54.298;10.172;2023-02-22T04:31:49;7.20;1.00
2463;DHT22;1243;54.298;10.172;2023-02-22T04:34:14;7.20;1.00
2463;DHT22;1243;54.298;10.172;2023-02-22T04:36:40;7.30;1.00
2463;DHT22;1243;54.298;10.172;2023-02-22T04:39:09;7.30;1.00
2463;DHT22;1243;54.298;10.172;2023-02-22T04:41:34;7.20;1.00
2463;DHT22;1243;54.298;10.172;2023-02-22T04:44:00;7.20;1.00
2463;DHT22;1243;54.298;10.172;2023-02-22T04:46:26;7.20;1.00
2463;DHT22;1243;54.298;10.172;2023-02-22T04:48:52;7.10;1.00
2463;DHT22;1243;54.298;10.172;2023-02-22T04:51:18;7.10;1.00
2463;DHT22;1243;54.298;10.172;2023-02-22T04:53:44;7.10;1.00
2463;DHT22;1243;54.298;10.172;2023-02-22T04:56:10;7.10;1.00
2463;DHT22;1243;54.298;10.172;2023-02-22T04:58:36;7.10;1.00
2463;DHT22;1243;54.298;10.172;2023-02-22T05:01:02;7.10;1.00
2463;DHT22;1243;54.298;10.172;2023-02-22T05:03:28;7.00;1.00
2463;DHT22;1243;54.298;10.172;2023-02-22T05:05:53;6.90;1.00
2463;DHT22;1243;54.298;10.172;2023-02-22T05:08:19;6.90;1.00
2463;DHT22;1243;54.298;10.172;2023-02-22T05:10:45;7.00;1.00
2463;DHT22;1243;54.298;10.172;2023-02-22T05:13:11;6.90;1.00
2463;DHT22;1243;54.298;10.172;2023-02-22T05:15:36;7.00;1.00
2463;DHT22;1243;54.298;10.172;2023-02-22T05:18:02;6.90;1.00
2463;DHT22;1243;54.298;10.172;2023-02-22T05:20:34;6.90;1.00
2463;DHT22;1243;54.298;10.172;2023-02-22T05:23:01;6.90;1.00
2463;DHT22;1243;54.298;10.172;2023-02-22T05:25:27;6.90;1.00
2463;DHT22;1243;54.298;10.172;2023-02-22T05:27:56;7.00;1.00
2463;DHT22;1243;54.298;10.172;2023-02-22T05:30:25;7.00;1.00
2463;DHT22;1243;54.298;10.172;2023-02-22T05:32:51;6.90;1.00
2463;DHT22;1243;54.298;10.172;2023-02-22T05:35:20;7.00;1.00
2463;DHT22;1243;54.298;10.172;2023-02-22T05:37:46;7.00;1.00
2463;DHT22;1243;54.298;10.172;2023-02-22T05:40:12;7.00;1.00
2463;DHT22;1243;54.298;10.172;2023-02-22T05:42:40;7.00;1.00
2463;DHT22;1243;54.298;10.172;2023-02-22T05:45:06;7.00;1.00
2463;DHT22;1243;54.298;10.172;2023-02-22T05:47:32;7.10;1.00
2463;DHT22;1243;54.298;10.172;2023-02-22T05:49:58;7.10;1.00
2463;DHT22;1243;54.298;10.172;2023-02-22T05:52:23;7.10;1.00
2463;DHT22;1243;54.298;10.172;2023-02-22T05:54:49;7.10;1.00
2463;DHT22;1243;54.298;10.172;2023-02-22T05:57:15;7.10;1.00
2463;DHT22;1243;54.298;10.172;2023-02-22T05:59:41;7.00;1.00
2463;DHT22;1243;54.298;10.172;2023-02-22T06:02:07;7.00;1.00
2463;DHT22;1243;54.298;10.172;2023-02-22T06:04:33;7.10;1.00
2463;DHT22;1243;54.298;10.172;2023-02-22T06:06:59;7.00;1.00
2463;DHT22;1243;54.298;10.172;2023-02-22T06:09:25;7.00;1.00
2463;DHT22;1243;54.298;10.172;2023-02-22T06:11:50;7.00;1.00
2463;DHT22;1243;54.298;10.172;2023-02-22T06:14:16;7.10;1.00
2463;DHT22;1243;54.298;10.172;2023-02-22T06:16:42;7.10;1.00
2463;DHT22;1243;54.298;10.172;2023-02-22T06:19:08;7.10;1.00
2463;DHT22;1243;54.298;10.172;2023-02-22T06:21:33;7.10;1.00
2463;DHT22;1243;54.298;10.172;2023-02-22T06:24:01;7.10;1.00
2463;DHT22;1243;54.298;10.172;2023-02-22T06:26:28;7.20;1.00
2463;DHT22;1243;54.298;10.172;2023-02-22T06:28:54;7.10;1.00
2463;DHT22;1243;54.298;10.172;2023-02-22T06:31:20;7.10;1.00
2463;DHT22;1243;54.298;10.172;2023-02-22T06:33:45;7.20;1.00
2463;DHT22;1243;54.298;10.172;2023-02-22T06:36:11;7.20;1.00
2463;DHT22;1243;54.298;10.172;2023-02-22T06:38:37;7.20;1.00
2463;DHT22;1243;54.298;10.172;2023-02-22T06:41:02;7.20;1.00
2463;DHT22;1243;54.298;10.172;2023-02-22T06:43:28;7.20;1.00
2463;DHT22;1243;54.298;10.172;2023-02-22T06:45:54;7.20;1.00
2463;DHT22;1243;54.298;10.172;2023-02-22T06:48:19;7.20;1.00
2463;DHT22;1243;54.298;10.172;2023-02-22T06:50:45;7.20;1.00
2463;DHT22;1243;54.298;10.172;2023-02-22T06:53:11;7.30;1.00
2463;DHT22;1243;54.298;10.172;2023-02-22T06:55:37;7.30;1.00
2463;DHT22;1243;54.298;10.172;2023-02-22T06:58:04;7.40;1.00
2463;DHT22;1243;54.298;10.172;2023-02-22T07:00:30;7.40;1.00
2463;DHT22;1243;54.298;10.172;2023-02-22T07:02:57;7.40;1.00
2463;DHT22;1243;54.298;10.172;2023-02-22T07:05:25;7.40;1.00
2463;DHT22;1243;54.298;10.172;2023-02-22T07:07:53;7.50;1.00
2463;DHT22;1243;54.298;10.172;2023-02-22T07:10:25;7.50;1.00
2463;DHT22;1243;54.298;10.172;2023-02-22T07:12:52;7.50;1.00
2463;DHT22;1243;54.298;10.172;2023-02-22T07:15:21;7.50;1.00
2463;DHT22;1243;54.298;10.172;2023-02-22T07:17:48;7.50;1.00
2463;DHT22;1243;54.298;10.172;2023-02-22T07:20:14;7.60;1.00
2463;DHT22;1243;54.298;10.172;2023-02-22T07:22:40;7.60;1.00
2463;DHT22;1243;54.298;10.172;2023-02-22T07:25:06;7.60;1.00
2463;DHT22;1243;54.298;10.172;2023-02-22T07:27:39;7.60;1.00
2463;DHT22;1243;54.298;10.172;2023-02-22T07:30:07;7.60;1.00
2463;DHT22;1243;54.298;10.172;2023-02-22T07:32:33;7.70;1.00
2463;DHT22;1243;54.298;10.172;2023-02-22T07:34:59;7.60;1.00
2463;DHT22;1243;54.298;10.172;2023-02-22T07:37:27;7.60;1.00
2463;DHT22;1243;54.298;10.172;2023-02-22T07:39:53;7.70;1.00
2463;DHT22;1243;54.298;10.172;2023-02-22T07:42:19;7.70;1.00
2463;DHT22;1243;54.298;10.172;2023-02-22T07:44:44;7.70;1.00
2463;DHT22;1243;54.298;10.172;2023-02-22T07:47:10;7.70;1.00
2463;DHT22;1243;54.298;10.172;2023-02-22T07:49:37;7.70;1.00
2463;DHT22;1243;54.298;10.172;2023-02-22T07:52:03;7.70;1.00
2463;DHT22;1243;54.298;10.172;2023-02-22T07:54:28;7.80;1.00
2463;DHT22;1243;54.298;10.172;2023-02-22T07:56:54;7.70;1.00
2463;DHT22;1243;54.298;10.172;2023-02-22T07:59:20;7.80;1.00
2463;DHT22;1243;54.298;10.172;2023-02-22T08:01:48;7.80;1.00
2463;DHT22;1243;54.298;10.172;2023-02-22T08:04:14;7.80;1.00
2463;DHT22;1243;54.298;10.172;2023-02-22T08:06:40;7.80;1.00
2463;DHT22;1243;54.298;10.172;2023-02-22T08:09:06;7.90;1.00
2463;DHT22;1243;54.298;10.172;2023-02-22T08:11:32;7.80;1.00
2463;DHT22;1243;54.298;10.172;2023-02-22T08:13:57;7.80;1.00
2463;DHT22;1243;54.298;10.172;2023-02-22T08:16:23;7.90;1.00
2463;DHT22;1243;54.298;10.172;2023-02-22T08:18:49;7.90;1.00
2463;DHT22;1243;54.298;10.172;2023-02-22T08:21:15;8.00;1.00
2463;DHT22;1243;54.298;10.172;2023-02-22T08:23:41;8.00;1.00
2463;DHT22;1243;54.298;10.172;2023-02-22T08:26:08;8.00;1.00
2463;DHT22;1243;54.298;10.172;2023-02-22T08:28:34;7.90;1.00
2463;DHT22;1243;54.298;10.172;2023-02-22T08:31:00;8.00;1.00
2463;DHT22;1243;54.298;10.172;2023-02-22T08:33:26;8.00;1.00
2463;DHT22;1243;54.298;10.172;2023-02-22T08:35:52;8.00;1.00
2463;DHT22;1243;54.298;10.172;2023-02-22T08:38:27;8.00;1.00
2463;DHT22;1243;54.298;10.172;2023-02-22T08:40:53;8.00;1.00
2463;DHT22;1243;54.298;10.172;2023-02-22T08:43:20;8.00;1.00
2463;DHT22;1243;54.298;10.172;2023-02-22T08:45:46;8.10;1.00
2463;DHT22;1243;54.298;10.172;2023-02-22T08:48:13;8.10;1.00
2463;DHT22;1243;54.298;10.172;2023-02-22T08:50:39;8.20;1.00
2463;DHT22;1243;54.298;10.172;2023-02-22T08:53:07;8.10;1.00
2463;DHT22;1243;54.298;10.172;2023-02-22T08:55:36;8.10;1.00
2463;DHT22;1243;54.298;10.172;2023-02-22T08:58:04;8.20;1.00
2463;DHT22;1243;54.298;10.172;2023-02-22T09:00:32;8.20;1.00
2463;DHT22;1243;54.298;10.172;2023-02-22T09:03:06;8.30;1.00
2463;DHT22;1243;54.298;10.172;2023-02-22T09:05:32;8.30;1.00
2463;DHT22;1243;54.298;10.172;2023-02-22T09:07:58;8.30;1.00
2463;DHT22;1243;54.298;10.172;2023-02-22T09:10:27;8.30;1.00
2463;DHT22;1243;54.298;10.172;2023-02-22T09:12:54;8.30;1.00
2463;DHT22;1243;54.298;10.172;2023-02-22T09:15:20;8.40;1.00
2463;DHT22;1243;54.298;10.172;2023-02-22T09:17:47;8.40;1.00
2463;DHT22;1243;54.298;10.172;2023-02-22T09:20:15;8.40;1.00
2463;DHT22;1243;54.298;10.172;2023-02-22T09:22:44;8.50;1.00
2463;DHT22;1243;54.298;10.172;2023-02-22T09:25:10;8.60;1.00
2463;DHT22;1243;54.298;10.172;2023-02-22T09:27:36;8.60;1.00
2463;DHT22;1243;54.298;10.172;2023-02-22T09:30:03;8.70;1.00
2463;DHT22;1243;54.298;10.172;2023-02-22T09:32:29;8.70;1.00
2463;DHT22;1243;54.298;10.172;2023-02-22T09:34:55;8.70;1.00
2463;DHT22;1243;54.298;10.172;2023-02-22T09:37:21;8.70;1.00
2463;DHT22;1243;54.298;10.172;2023-02-22T09:39:47;8.80;1.00
2463;DHT22;1243;54.298;10.172;2023-02-22T09:44:51;8.90;1.00
2463;DHT22;1243;54.298;10.172;2023-02-22T09:47:35;9.00;1.00
2463;DHT22;1243;54.298;10.172;2023-02-22T09:50:06;9.00;1.00
2463;DHT22;1243;54.298;10.172;2023-02-22T09:52:57;9.10;1.00
2463;DHT22;1243;54.298;10.172;2023-02-22T09:57:57;9.10;1.00
2463;DHT22;1243;54.298;10.172;2023-02-22T10:00:32;9.20;1.00
2463;DHT22;1243;54.298;10.172;2023-02-22T10:03:26;9.20;1.00
2463;DHT22;1243;54.298;10.172;2023-02-22T10:06:04;9.20;1.00
2463;DHT22;1243;54.298;10.172;2023-02-22T10:08:36;9.30;1.00
2463;DHT22;1243;54.298;10.172;2023-02-22T10:16:59;9.50;1.00
2463;DHT22;1243;54.298;10.172;2023-02-22T10:19:41;9.60;1.00
2463;DHT22;1243;54.298;10.172;2023-02-22T10:22:34;9.60;1.00
2463;DHT22;1243;54.298;10.172;2023-02-22T10:25:14;9.50;1.00
2463;DHT22;1243;54.298;10.172;2023-02-22T10:27:55;9.50;1.00
2463;DHT22;1243;54.298;10.172;2023-02-22T10:30:30;9.60;1.00
2463;DHT22;1243;54.298;10.172;2023-02-22T10:33:21;9.70;1.00
2463;DHT22;1243;54.298;10.172;2023-02-22T10:35:48;9.70;1.00
2463;DHT22;1243;54.298;10.172;2023-02-22T10:38:20;9.70;1.00
2463;DHT22;1243;54.298;10.172;2023-02-22T10:41:01;9.80;1.00
2463;DHT22;1243;54.298;10.172;2023-02-22T10:43:27;9.80;1.00
2463;DHT22;1243;54.298;10.172;2023-02-22T10:46:01;9.90;1.00
2463;DHT22;1243;54.298;10.172;2023-02-22T10:48:30;10.00;1.00
2463;DHT22;1243;54.298;10.172;2023-02-22T10:51:00;10.10;1.00
2463;DHT22;1243;54.298;10.172;2023-02-22T10:53:28;10.10;1.00
2463;DHT22;1243;54.298;10.172;2023-02-22T10:56:22;10.20;1.00
2463;DHT22;1243;54.298;10.172;2023-02-22T10:58:57;10.30;1.00
2463;DHT22;1243;54.298;10.172;2023-02-22T11:06:34;10.50;1.00
2463;DHT22;1243;54.298;10.172;2023-02-22T11:09:10;10.50;99.90
2463;DHT22;1243;54.298;10.172;2023-02-22T11:11:38;10.60;99.90
2463;DHT22;1243;54.298;10.172;2023-02-22T11:14:04;10.60;99.90
2463;DHT22;1243;54.298;10.172;2023-02-22T11:16:50;10.60;99.90
2463;DHT22;1243;54.298;10.172;2023-02-22T11:22:12;10.70;99.90
2463;DHT22;1243;54.298;10.172;2023-02-22T11:24:56;10.60;99.90
2463;DHT22;1243;54.298;10.172;2023-02-22T11:29:54;10.50;99.90
2463;DHT22;1243;54.298;10.172;2023-02-22T11:32:21;10.50;99.90
2463;DHT22;1243;54.298;10.172;2023-02-22T11:34:49;10.50;99.90
2463;DHT22;1243;54.298;10.172;2023-02-22T11:42:29;10.70;99.90
2463;DHT22;1243;54.298;10.172;2023-02-22T11:45:27;10.80;99.90
2463;DHT22;1243;54.298;10.172;2023-02-22T11:47:58;10.90;99.90
2463;DHT22;1243;54.298;10.172;2023-02-22T11:55:54;10.90;99.90
2463;DHT22;1243;54.298;10.172;2023-02-22T12:01:30;10.80;99.90
2463;DHT22;1243;54.298;10.172;2023-02-22T12:10:13;10.90;99.90
2463;DHT22;1243;54.298;10.172;2023-02-22T12:13:03;11.00;99.90
2463;DHT22;1243;54.298;10.172;2023-02-22T12:19:10;11.00;99.90
2463;DHT22;1243;54.298;10.172;2023-02-22T12:21:08;10.90;99.90
2463;DHT22;1243;54.298;10.172;2023-02-22T12:26:50;11.00;99.90
2463;DHT22;1243;54.298;10.172;2023-02-22T12:29:28;11.00;99.90
2463;DHT22;1243;54.298;10.172;2023-02-22T12:32:21;11.00;99.90
2463;DHT22;1243;54.298;10.172;2023-02-22T12:35:08;11.00;99.90
2463;DHT22;1243;54.298;10.172;2023-02-22T12:37:45;11.00;99.90
2463;DHT22;1243;54.298;10.172;2023-02-22T12:43:21;11.00;99.90
2463;DHT22;1243;54.298;10.172;2023-02-22T12:51:33;11.20;99.90
2463;DHT22;1243;54.298;10.172;2023-02-22T12:54:34;11.30;99.90
2463;DHT22;1243;54.298;10.172;2023-02-22T12:59:51;11.30;99.90
2463;DHT22;1243;54.298;10.172;2023-02-22T13:02:26;11.40;99.90
2463;DHT22;1243;54.298;10.172;2023-02-22T13:04:53;11.40;99.90
2463;DHT22;1243;54.298;10.172;2023-02-22T13:07:45;11.40;99.90
2463;DHT22;1243;54.298;10.172;2023-02-22T13:15:45;11.20;99.90
2463;DHT22;1243;54.298;10.172;2023-02-22T13:29:27;10.80;99.90
2463;DHT22;1243;54.298;10.172;2023-02-22T13:32:01;10.80;99.90
2463;DHT22;1243;54.298;10.172;2023-02-22T13:37:40;10.80;99.90
2463;DHT22;1243;54.298;10.172;2023-02-22T13:45:56;10.70;99.90
2463;DHT22;1243;54.298;10.172;2023-02-22T13:51:32;10.80;99.90
2463;DHT22;1243;54.298;10.172;2023-02-22T13:54:08;10.80;99.90
2463;DHT22;1243;54.298;10.172;2023-02-22T13:56:43;10.80;99.90
2463;DHT22;1243;54.298;10.172;2023-02-22T14:01:50;10.80;99.90
2463;DHT22;1243;54.298;10.172;2023-02-22T14:06:54;10.80;99.90
2463;DHT22;1243;54.298;10.172;2023-02-22T14:09:46;10.80;99.90
2463;DHT22;1243;54.298;10.172;2023-02-22T14:20:32;10.80;99.90
2463;DHT22;1243;54.298;10.172;2023-02-22T14:23:26;10.80;99.90
2463;DHT22;1243;54.298;10.172;2023-02-22T14:25:53;10.80;99.90
2463;DHT22;1243;54.298;10.172;2023-02-22T14:31:12;10.80;99.90
2463;DHT22;1243;54.298;10.172;2023-02-22T14:39:36;10.90;99.90
2463;DHT22;1243;54.298;10.172;2023-02-22T14:42:13;10.90;99.90
2463;DHT22;1243;54.298;10.172;2023-02-22T14:44:52;10.90;99.90
2463;DHT22;1243;54.298;10.172;2023-02-22T14:47:26;10.90;99.90
2463;DHT22;1243;54.298;10.172;2023-02-22T14:49:59;10.90;99.90
2463;DHT22;1243;54.298;10.172;2023-02-22T14:52:30;10.80;99.90
2463;DHT22;1243;54.298;10.172;2023-02-22T14:57:53;10.80;99.90
2463;DHT22;1243;54.298;10.172;2023-02-22T15:00:26;10.70;99.90
2463;DHT22;1243;54.298;10.172;2023-02-22T15:02:59;10.60;99.90
2463;DHT22;1243;54.298;10.172;2023-02-22T15:05:27;10.50;99.90
2463;DHT22;1243;54.298;10.172;2023-02-22T15:08:01;10.40;99.90
2463;DHT22;1243;54.298;10.172;2023-02-22T15:10:40;10.40;99.90
2463;DHT22;1243;54.298;10.172;2023-02-22T15:13:19;10.40;99.90
2463;DHT22;1243;54.298;10.172;2023-02-22T15:15:53;10.30;99.90
2463;DHT22;1243;54.298;10.172;2023-02-22T15:18:26;10.30;99.90
2463;DHT22;1243;54.298;10.172;2023-02-22T15:21:05;10.40;99.90
2463;DHT22;1243;54.298;10.172;2023-02-22T15:23:41;10.30;99.90
2463;DHT22;1243;54.298;10.172;2023-02-22T15:28:43;10.20;99.90
2463;DHT22;1243;54.298;10.172;2023-02-22T15:31:16;10.20;99.90
2463;DHT22;1243;54.298;10.172;2023-02-22T15:33:42;10.20;99.90
2463;DHT22;1243;54.298;10.172;2023-02-22T15:36:14;10.20;99.90
2463;DHT22;1243;54.298;10.172;2023-02-22T15:38:47;10.10;99.90
2463;DHT22;1243;54.298;10.172;2023-02-22T15:41:22;10.00;99.90
2463;DHT22;1243;54.298;10.172;2023-02-22T15:44:08;10.00;99.90
2463;DHT22;1243;54.298;10.172;2023-02-22T15:46:40;10.00;99.90
2463;DHT22;1243;54.298;10.172;2023-02-22T15:51:36;10.00;99.90
2463;DHT22;1243;54.298;10.172;2023-02-22T15:54:03;9.90;99.90
2463;DHT22;1243;54.298;10.172;2023-02-22T15:56:34;9.90;99.90
2463;DHT22;1243;54.298;10.172;2023-02-22T15:59:13;9.80;99.90
2463;DHT22;1243;54.298;10.172;2023-02-22T16:01:44;9.80;99.90
2463;DHT22;1243;54.298;10.172;2023-02-22T16:04:27;9.80;99.90
2463;DHT22;1243;54.298;10.172;2023-02-22T16:07:03;9.70;99.90
2463;DHT22;1243;54.298;10.172;2023-02-22T16:09:31;9.70;99.90
2463;DHT22;1243;54.298;10.172;2023-02-22T16:12:24;9.70;99.90
2463;DHT22;1243;54.298;10.172;2023-02-22T16:14:50;9.60;99.90
2463;DHT22;1243;54.298;10.172;2023-02-22T16:20:27;9.60;99.90
2463;DHT22;1243;54.298;10.172;2023-02-22T16:22:47;9.50;99.90
2463;DHT22;1243;54.298;10.172;2023-02-22T16:27:54;9.50;99.90
2463;DHT22;1243;54.298;10.172;2023-02-22T16:30:37;9.50;99.90
2463;DHT22;1243;54.298;10.172;2023-02-22T16:33:08;9.50;99.90
2463;DHT22;1243;54.298;10.172;2023-02-22T16:35:38;9.40;99.90
2463;DHT22;1243;54.298;10.172;2023-02-22T16:38:06;9.30;99.90
2463;DHT22;1243;54.298;10.172;2023-02-22T16:40:44;9.30;99.90
2463;DHT22;1243;54.298;10.172;2023-02-22T16:43:14;9.30;99.90
2463;DHT22;1243;54.298;10.172;2023-02-22T16:45:42;9.30;99.90
2463;DHT22;1243;54.298;10.172;2023-02-22T16:48:19;9.30;99.90
2463;DHT22;1243;54.298;10.172;2023-02-22T16:50:48;9.20;99.90
2463;DHT22;1243;54.298;10.172;2023-02-22T16:53:16;9.20;99.90
2463;DHT22;1243;54.298;10.172;2023-02-22T16:55:53;9.20;99.90
2463;DHT22;1243;54.298;10.172;2023-02-22T16:58:23;9.20;99.90
2463;DHT22;1243;54.298;10.172;2023-02-22T17:00:53;9.20;99.90
2463;DHT22;1243;54.298;10.172;2023-02-22T17:03:22;9.20;99.90
2463;DHT22;1243;54.298;10.172;2023-02-22T17:05:48;9.20;99.90
2463;DHT22;1243;54.298;10.172;2023-02-22T17:08:14;9.20;99.90
2463;DHT22;1243;54.298;10.172;2023-02-22T17:10:43;9.10;99.90
2463;DHT22;1243;54.298;10.172;2023-02-22T17:13:10;9.10;99.90
2463;DHT22;1243;54.298;10.172;2023-02-22T17:15:37;9.10;99.90
2463;DHT22;1243;54.298;10.172;2023-02-22T17:18:11;9.10;99.90
2463;DHT22;1243;54.298;10.172;2023-02-22T17:20:38;9.10;99.90
2463;DHT22;1243;54.298;10.172;2023-02-22T17:23:07;9.10;99.90
2463;DHT22;1243;54.298;10.172;2023-02-22T17:25:41;9.10;99.90
2463;DHT22;1243;54.298;10.172;2023-02-22T17:28:07;9.10;99.90
2463;DHT22;1243;54.298;10.172;2023-02-22T17:30:34;9.10;99.90
2463;DHT22;1243;54.298;10.172;2023-02-22T17:33:02;9.10;99.90
2463;DHT22;1243;54.298;10.172;2023-02-22T17:35:34;9.10;99.90
2463;DHT22;1243;54.298;10.172;2023-02-22T17:38:00;9.10;99.90
2463;DHT22;1243;54.298;10.172;2023-02-22T17:40:34;9.10;99.90
2463;DHT22;1243;54.298;10.172;2023-02-22T17:43:00;9.10;99.90
2463;DHT22;1243;54.298;10.172;2023-02-22T17:45:27;9.10;99.90
2463;DHT22;1243;54.298;10.172;2023-02-22T17:47:53;9.10;99.90
2463;DHT22;1243;54.298;10.172;2023-02-22T17:50:21;9.10;99.90
2463;DHT22;1243;54.298;10.172;2023-02-22T17:52:47;9.10;99.90
2463;DHT22;1243;54.298;10.172;2023-02-22T17:55:17;9.10;99.90
2463;DHT22;1243;54.298;10.172;2023-02-22T17:57:43;9.00;99.90
2463;DHT22;1243;54.298;10.172;2023-02-22T18:00:13;9.00;99.90
2463;DHT22;1243;54.298;10.172;2023-02-22T18:02:43;9.00;99.90
2463;DHT22;1243;54.298;10.172;2023-02-22T18:05:11;9.00;99.90
2463;DHT22;1243;54.298;10.172;2023-02-22T18:07:37;8.90;99.90
2463;DHT22;1243;54.298;10.172;2023-02-22T18:10:04;9.00;99.90
2463;DHT22;1243;54.298;10.172;2023-02-22T18:12:39;9.00;99.90
2463;DHT22;1243;54.298;10.172;2023-02-22T18:15:06;9.00;99.90
2463;DHT22;1243;54.298;10.172;2023-02-22T18:17:33;9.00;99.90
2463;DHT22;1243;54.298;10.172;2023-02-22T18:19:59;9.00;99.90
2463;DHT22;1243;54.298;10.172;2023-02-22T18:22:24;9.10;99.90
2463;DHT22;1243;54.298;10.172;2023-02-22T18:24:50;9.00;99.90
2463;DHT22;1243;54.298;10.172;2023-02-22T18:27:19;9.00;99.90
2463;DHT22;1243;54.298;10.172;2023-02-22T18:29:44;9.00;99.90
2463;DHT22;1243;54.298;10.172;2023-02-22T18:32:10;9.00;99.90
2463;DHT22;1243;54.298;10.172;2023-02-22T18:34:38;9.00;99.90
2463;DHT22;1243;54.298;10.172;2023-02-22T18:37:04;8.90;99.90
2463;DHT22;1243;54.298;10.172;2023-02-22T18:39:31;8.90;99.90
2463;DHT22;1243;54.298;10.172;2023-02-22T18:41:59;8.90;99.90
2463;DHT22;1243;54.298;10.172;2023-02-22T18:44:25;8.90;99.90
2463;DHT22;1243;54.298;10.172;2023-02-22T18:46:53;8.90;99.90
2463;DHT22;1243;54.298;10.172;2023-02-22T18:49:19;8.90;99.90
2463;DHT22;1243;54.298;10.172;2023-02-22T18:51:45;8.90;99.90
2463;DHT22;1243;54.298;10.172;2023-02-22T18:54:11;8.90;99.90